createdAt,value
2019-05-19T00:01:49.297Z,21.33
2019-05-19T00:06:53.173Z,22.40
2019-05-19T00:11:57.149Z,23.40
2019-05-19T00:17:01.031Z,20.57
2019-05-19T00:22:04.895Z,18.50
2019-05-19T00:27:08.773Z,21.27
2019-05-19T00:32:12.678Z,23.10
2019-05-19T00:37:16.560Z,22.90
2019-05-19T00:42:20.538Z,24.65
2019-05-19T00:47:24.409Z,23.12
2019-05-19T00:52:28.281Z,24.32
2019-05-19T00:57:32.987Z,28.10
2019-05-19T01:02:36.871Z,29.02
2019-05-19T01:07:40.917Z,32.53
2019-05-19T01:12:44.793Z,34.20
2019-05-19T01:17:48.806Z,34.38
2019-05-19T01:22:52.782Z,30.10
2019-05-19T01:27:56.666Z,29.12
2019-05-19T01:33:00.543Z,31.48
2019-05-19T01:38:04.436Z,33.28
2019-05-19T01:43:08.581Z,27.90
2019-05-19T01:48:12.456Z,29.63
2019-05-19T01:53:16.324Z,27.90
2019-05-19T01:58:20.201Z,26.12
2019-05-19T02:03:24.087Z,27.20
2019-05-19T02:08:27.968Z,28.27
2019-05-19T02:13:31.843Z,27.35
2019-05-19T02:18:35.682Z,25.55
2019-05-19T02:23:39.592Z,28.87
2019-05-19T02:28:43.475Z,31.02
2019-05-19T02:33:47.359Z,29.12
2019-05-19T02:38:51.268Z,31.87
2019-05-19T02:43:56.775Z,31.20
2019-05-19T02:49:02.637Z,29.27
2019-05-19T02:54:08.607Z,25.62
2019-05-19T02:59:13.790Z,24.37
2019-05-19T03:04:17.751Z,26.17
2019-05-19T03:09:21.632Z,23.22
2019-05-19T03:14:25.535Z,28.05
2019-05-19T03:19:29.426Z,29.67
2019-05-19T03:24:33.315Z,33.13
2019-05-19T03:29:39.013Z,32.25
2019-05-19T03:34:42.873Z,34.33
2019-05-19T03:39:46.776Z,36.38
2019-05-19T03:44:50.644Z,39.60
2019-05-19T03:49:54.537Z,42.50
2019-05-19T03:54:58.412Z,39.40
2019-05-19T04:00:02.346Z,31.52
2019-05-19T04:05:09.904Z,36.10
2019-05-19T04:10:13.916Z,31.65
2019-05-19T04:15:17.888Z,35.25
2019-05-19T04:20:22.013Z,35.17
2019-05-19T04:25:25.873Z,32.08
2019-05-19T04:30:29.774Z,29.42
2019-05-19T04:35:33.663Z,28.65
2019-05-19T04:40:37.558Z,30.02
2019-05-19T04:45:41.422Z,28.75
2019-05-19T04:50:45.314Z,27.22
2019-05-19T04:55:49.194Z,24.55
2019-05-19T05:00:53.102Z,26.25
2019-05-19T05:05:56.973Z,22.45
2019-05-19T05:11:00.860Z,20.88
2019-05-19T05:16:04.753Z,19.73
2019-05-19T05:21:08.613Z,22.93
2019-05-19T05:26:12.503Z,20.02
2019-05-19T05:31:16.333Z,19.42
2019-05-19T05:36:20.273Z,18.82
2019-05-19T05:41:24.142Z,19.67
2019-05-19T05:46:28.004Z,15.88
2019-05-19T05:51:31.883Z,19.67
2019-05-19T05:56:35.775Z,18.48
2019-05-19T06:01:39.703Z,16.25
2019-05-19T06:06:45.769Z,17.15
2019-05-19T06:11:49.195Z,19.77
2019-05-19T06:16:53.071Z,15.88
2019-05-19T06:21:56.954Z,15.80
2019-05-19T06:27:00.843Z,16.85
2019-05-19T06:32:09.976Z,12.98
2019-05-19T06:37:13.875Z,13.03
2019-05-19T06:42:17.756Z,17.12
2019-05-19T06:47:21.643Z,15.05
2019-05-19T06:52:25.464Z,13.90
2019-05-19T06:57:29.391Z,12.40
2019-05-19T07:02:33.312Z,14.28
2019-05-19T07:07:37.172Z,13.55
2019-05-19T07:12:41.053Z,14.25
2019-05-19T07:17:45.148Z,13.53
2019-05-19T07:22:49.021Z,12.90
2019-05-19T07:27:52.937Z,14.55
2019-05-19T07:32:56.827Z,15.98
2019-05-19T07:38:00.734Z,16.20
2019-05-19T07:43:04.533Z,16.57
2019-05-19T07:48:08.456Z,14.85
2019-05-19T07:53:12.330Z,14.93
2019-05-19T07:58:16.169Z,12.90
2019-05-19T08:03:20.102Z,13.88
2019-05-19T08:08:23.978Z,12.35
2019-05-19T08:13:27.857Z,13.10
2019-05-19T08:18:31.735Z,12.98
2019-05-19T08:23:35.607Z,15.15
2019-05-19T08:28:39.490Z,12.82
2019-05-19T08:33:43.406Z,10.15
2019-05-19T08:38:47.279Z,10.58
2019-05-19T08:43:53.364Z,8.98
2019-05-19T08:48:58.587Z,12.55
2019-05-19T08:54:13.788Z,9.10
2019-05-19T08:59:07.873Z,7.87
2019-05-19T09:04:11.740Z,8.45
2019-05-19T09:09:15.624Z,8.95
2019-05-19T09:14:19.461Z,9.20
2019-05-19T09:19:23.337Z,9.55
2019-05-19T09:24:30.496Z,8.73
2019-05-19T09:29:32.727Z,8.60
2019-05-19T09:34:36.604Z,9.00
2019-05-19T09:39:40.489Z,8.00
2019-05-19T09:44:44.737Z,8.55
2019-05-19T09:49:48.839Z,8.75
2019-05-19T09:54:52.987Z,8.88
2019-05-19T09:59:56.971Z,8.48
2019-05-19T10:05:00.831Z,11.20
2019-05-19T10:10:14.025Z,9.88
2019-05-19T10:15:18.079Z,8.95
2019-05-19T10:20:22.288Z,9.60
2019-05-19T10:25:26.166Z,9.85
2019-05-19T10:30:30.066Z,10.63
2019-05-19T10:35:33.956Z,12.33
2019-05-19T10:40:37.856Z,17.48
2019-05-19T10:45:41.736Z,18.67
2019-05-19T10:50:45.642Z,19.82
2019-05-19T10:55:49.540Z,18.73
2019-05-19T11:00:53.429Z,17.95
2019-05-19T11:05:57.359Z,19.02
2019-05-19T11:11:01.232Z,21.35
2019-05-19T11:16:06.333Z,24.47
2019-05-19T11:21:10.250Z,23.83
2019-05-19T11:26:14.232Z,24.82
2019-05-19T11:31:18.173Z,24.85
2019-05-19T11:36:22.055Z,23.47
2019-05-19T11:41:25.971Z,23.18
2019-05-19T11:46:29.840Z,25.60
2019-05-19T11:51:33.712Z,22.27
2019-05-19T11:56:37.615Z,27.45
2019-05-19T12:01:41.492Z,24.20
2019-05-19T12:06:45.386Z,27.42
2019-05-19T12:11:49.288Z,30.20
2019-05-19T12:16:53.260Z,35.35
2019-05-19T12:21:58.037Z,30.35
2019-05-19T12:27:01.927Z,32.42
2019-05-19T12:32:05.798Z,34.58
2019-05-19T12:37:09.685Z,29.12
2019-05-19T12:42:13.647Z,29.57
2019-05-19T12:47:17.550Z,31.07
2019-05-19T12:52:21.413Z,26.97
2019-05-19T12:57:25.364Z,27.73
2019-05-19T13:02:29.261Z,27.45
2019-05-19T13:07:33.141Z,25.45
2019-05-19T13:12:37.017Z,25.25
2019-05-19T13:17:40.890Z,27.52
2019-05-19T13:22:44.769Z,29.27
2019-05-19T13:27:48.644Z,23.67
2019-05-19T13:32:52.571Z,21.30
2019-05-19T13:37:56.474Z,22.62
2019-05-19T13:43:00.665Z,23.10
2019-05-19T13:48:04.749Z,22.10
2019-05-19T13:53:08.916Z,18.50
2019-05-19T13:58:12.801Z,19.32
2019-05-19T14:03:16.688Z,20.88
2019-05-19T14:08:20.563Z,19.73
2019-05-19T14:13:24.488Z,23.73
2019-05-19T14:18:28.378Z,23.57
2019-05-19T14:23:32.250Z,25.45
2019-05-19T14:28:36.124Z,25.55
2019-05-19T14:33:40.007Z,24.37
2019-05-19T14:39:04.764Z,28.55
2019-05-19T14:44:05.688Z,25.17
2019-05-19T14:49:15.678Z,26.50
2019-05-19T14:54:19.629Z,26.35
2019-05-19T14:59:23.508Z,24.90
2019-05-19T15:04:27.413Z,22.65
2019-05-19T15:09:31.245Z,25.20
2019-05-19T15:14:35.183Z,22.45
2019-05-19T15:19:39.058Z,22.05
2019-05-19T15:24:43.637Z,22.17
2019-05-19T15:29:47.528Z,21.70
2019-05-19T15:34:51.440Z,19.70
2019-05-19T15:39:55.308Z,20.32
2019-05-19T15:44:59.509Z,21.68
2019-05-19T15:50:04.323Z,18.37
2019-05-19T15:55:08.355Z,19.17
2019-05-19T16:00:15.919Z,19.15
2019-05-19T16:05:19.804Z,20.60
2019-05-19T16:10:23.704Z,17.48
2019-05-19T16:15:27.685Z,17.62
2019-05-19T16:20:31.763Z,15.43
2019-05-19T16:25:35.634Z,15.68
2019-05-19T16:30:39.509Z,16.62
2019-05-19T16:35:43.379Z,16.65
2019-05-19T16:40:47.267Z,50.05
2019-05-19T16:45:51.187Z,28.32
2019-05-19T16:50:55.059Z,17.30
2019-05-19T16:55:59.022Z,15.13
2019-05-19T17:01:03.075Z,13.35
2019-05-19T17:06:06.968Z,9.88
2019-05-19T17:11:18.039Z,5.78
2019-05-19T17:16:16.333Z,10.32
2019-05-19T17:21:20.258Z,4.53
2019-05-19T17:26:24.157Z,5.85
2019-05-19T17:31:28.028Z,7.22
2019-05-19T17:36:31.997Z,7.70
2019-05-19T17:41:35.880Z,9.28
2019-05-19T17:46:39.757Z,13.30
2019-05-19T17:51:43.637Z,8.73
2019-05-19T17:56:48.319Z,6.35
2019-05-19T18:01:52.211Z,9.08
2019-05-19T18:06:56.068Z,7.75
2019-05-19T18:11:59.950Z,8.55
2019-05-19T18:17:04.143Z,8.80
2019-05-19T18:22:08.008Z,10.85
2019-05-19T18:27:11.903Z,11.63
2019-05-19T18:32:15.741Z,12.93
2019-05-19T18:37:19.644Z,9.98
2019-05-19T18:42:23.512Z,13.68
2019-05-19T18:48:06.101Z,12.40
2019-05-19T18:53:10.065Z,12.50
2019-05-19T18:58:14.007Z,10.55
2019-05-19T19:03:18.155Z,8.68
2019-05-19T19:08:22.811Z,8.53
2019-05-19T19:13:26.745Z,12.35
2019-05-19T19:18:30.677Z,11.85
2019-05-19T19:23:34.639Z,11.22
2019-05-19T19:28:38.580Z,11.38
2019-05-19T19:33:42.521Z,12.90
2019-05-19T19:38:46.447Z,19.55
2019-05-19T19:43:50.421Z,13.38
2019-05-19T19:48:54.577Z,13.85
2019-05-19T19:53:58.527Z,15.45
2019-05-19T19:59:02.647Z,17.07
2019-05-19T20:04:06.656Z,13.83
2019-05-19T20:09:10.889Z,17.95
2019-05-19T20:14:14.865Z,17.25
2019-05-19T20:19:18.830Z,17.12
2019-05-19T20:24:22.977Z,26.90
2019-05-19T20:29:27.007Z,16.82
2019-05-19T20:34:30.976Z,18.87
2019-05-19T20:39:34.928Z,19.52
2019-05-19T20:44:38.840Z,18.82
2019-05-19T20:49:42.900Z,21.57
2019-05-19T20:54:46.875Z,19.15
2019-05-19T20:59:50.861Z,16.80
2019-05-19T21:04:54.874Z,19.85
2019-05-19T21:09:58.834Z,17.35
2019-05-19T21:15:02.872Z,19.65
2019-05-19T21:20:06.941Z,18.27
2019-05-19T21:25:11.087Z,16.50
2019-05-19T21:30:15.170Z,20.62
2019-05-19T21:35:19.379Z,16.17
2019-05-19T21:40:23.325Z,18.85
2019-05-19T21:45:27.265Z,15.43
2019-05-19T21:50:31.205Z,18.32
2019-05-19T21:55:35.289Z,18.07
2019-05-19T22:00:39.648Z,19.57
2019-05-19T22:05:52.806Z,15.20
2019-05-19T22:10:49.470Z,20.17
2019-05-19T22:15:53.423Z,19.05
2019-05-19T22:20:57.508Z,17.60
2019-05-19T22:26:01.554Z,16.48
2019-05-19T22:31:05.678Z,16.97
2019-05-19T22:36:09.721Z,16.42
2019-05-19T22:41:13.708Z,17.40
2019-05-19T22:46:17.987Z,15.18
2019-05-19T22:51:22.860Z,19.07
2019-05-19T22:56:26.961Z,22.48
2019-05-19T23:01:30.913Z,18.77
2019-05-19T23:06:35.010Z,20.48
2019-05-19T23:11:39.051Z,18.98
2019-05-19T23:16:43.073Z,18.70
2019-05-19T23:21:47.098Z,17.15
2019-05-19T23:26:51.047Z,15.72
2019-05-19T23:32:06.672Z,18.45
2019-05-19T23:37:00.717Z,17.57
2019-05-19T23:42:04.749Z,18.35
2019-05-19T23:47:08.710Z,19.00
2019-05-19T23:52:12.848Z,17.00
2019-05-19T23:57:16.788Z,17.67
